Clipper Saga — LAFY6 — position and weather

sailwx.info

Track history (hours):
 
Tides and Currents Weather Stations Pressure Air Temp Water Temp Dewpoint Dewpoint Depression Visibility Wind Speed Wind Dir Waves Ship Positions

Clipper Saga

Last reported at 2016-May-27 21:32 UTC. Time now 2016-May-27 22:08 UTC.
Position N 52°05' E 002°22'.

Length 89 m; draft 5.9 m.

Type: Ship (hazmat cat C). MMSI: 246657008.

Date/timePositionNaut miles runAvg speedWind from/ knotsBaromVisibWave heightAir tempDewpointWater temp
2016-May-27 21:32N 52°05' E 002°22'3 3.2
2016-May-27 20:33N 52°09' E 002°22'3 2.5
2016-May-27 19:32N 52°11' E 002°22'3 2.0
2016-May-27 18:13N 52°14' E 002°22'13 7.0
2016-May-27 16:22N 52°27' E 002°22'37 4.1
2016-May-27 07:24N 52°03' E 003°07'6 7.2
2016-May-27 06:31N 52°03' E 003°18'1312.2
2016-May-27 05:27N 52°03' E 003°39'1010.8
2016-May-27 04:33N 52°03' E 003°55'1111.4
2016-May-27 03:33N 51°57' E 004°11'6 5.5
2016-May-27 02:33N 51°53' E 004°17'0 0.0
2016-May-27 01:21N 51°53' E 004°17'0 0.0
2016-May-27 00:18N 51°53' E 004°17'0 0.0
2016-May-26 23:03N 51°53' E 004°17'0 0.0
2016-May-26 22:12N 51°53' E 004°17'0 0.0
2016-May-26 21:24N 51°53' E 004°17'0 0.0
2016-May-26 20:22N 51°53' E 004°17'0 0.0
2016-May-26 19:30N 51°53' E 004°17'0 0.0
2016-May-26 18:12N 51°53' E 004°17'0 0.0
2016-May-26 17:33N 51°53' E 004°17'0 0.0
2016-May-26 16:33N 51°53' E 004°17'0 0.0
2016-May-26 15:25N 51°53' E 004°17'0 0.0
2016-May-26 14:27N 51°53' E 004°17'0 0.0
2016-May-26 13:21N 51°53' E 004°17'0 0.0
2016-May-26 07:33N 51°53' E 004°17'0 0.0
2016-May-26 06:25N 51°53' E 004°17'0 0.0
2016-May-25 23:33N 51°53' E 004°17'2 2.3
2016-May-25 22:33N 51°55' E 004°15'9 8.5
2016-May-25 21:33N 51°59' E 004°03'1010.1
2016-May-25 20:33N 52°01' E 003°47'75 6.2
2016-May-25 08:27N 52°43' E 002°05'1213.0
2016-May-25 07:33N 52°49' E 001°49'1212.1
2016-May-25 06:33N 52°57' E 001°34'1111.1
2016-May-25 05:33N 53°06' E 001°23'2110.5
2016-May-25 03:33N 53°24' E 001°05'14 9.9
2016-May-25 02:07N 53°36' E 000°53'25 9.4
2016-May-24 23:26N 53°58' E 000°30'910.0
2016-May-24 22:33N 54°05' E 000°22'1010.3
2016-May-24 21:33N 54°14' E 000°13'1110.8
2016-May-24 20:33N 54°23' E 000°03'1111.5
2016-May-24 19:34N 54°33' W 000°07'1211.8
2016-May-24 18:33N 54°43' W 000°19'1211.9
2016-May-24 17:33N 54°53' W 000°29'1211.9
2016-May-24 16:32N 55°03' W 000°40'1212.0
2016-May-24 15:33N 55°13' W 000°51'4511.2
2016-May-24 11:33N 55°47' W 001°43'1110.8
2016-May-24 10:33N 55°54' W 001°58'1110.8
2016-May-24 09:33N 55°59' W 002°15'1111.2
2016-May-24 08:33N 56°04' W 002°33'1110.6
2016-May-24 07:34N 56°05' W 002°52'1111.2
2016-May-24 06:33N 56°02' W 003°11'9 0.3
2016-May-23 03:11N 56°01' W 003°27'6 9.4
2016-May-23 02:33N 56°02' W 003°17'9 8.8
2016-May-23 01:33N 56°04' W 003°02'5 5.1
2016-May-23 00:33N 56°05' W 002°53'5 5.0
2016-May-22 23:33N 56°06' W 002°44'9 8.9
2016-May-22 22:33N 56°03' W 002°29'1212.4
2016-May-22 21:33N 55°58' W 002°09'10 9.8
2016-May-22 20:33N 55°52' W 001°54'5212.1
2016-May-22 16:16N 55°14' W 000°51'1011.9
2016-May-22 15:28N 55°06' W 000°42'1112.0
2016-May-22 14:33N 54°57' W 000°32'1212.2
2016-May-22 13:33N 54°47' W 000°21'1312.8
2016-May-22 12:33N 54°36' W 000°09'1313.5
2016-May-22 11:33N 54°25' E 000°03'1414.0
2016-May-22 10:33N 54°13' E 000°16'1813.6
2016-May-22 09:14N 53°55' E 000°21'913.9
2016-May-22 08:33N 53°46' E 000°22'1313.0
2016-May-22 07:34N 53°33' E 000°16'1212.2
2016-May-22 06:34N 53°36' W 000°04'5 4.4
2016-May-22 05:30N 53°38' W 000°11'0 0.0
2016-May-22 04:33N 53°38' W 000°11'0 0.0
2016-May-22 03:33N 53°38' W 000°11'0 0.0
2016-May-22 02:33N 53°38' W 000°11'0 0.0
2016-May-22 01:33N 53°38' W 000°11'0 0.0
2016-May-22 00:33N 53°38' W 000°11'0 0.0
2016-May-21 23:30N 53°38' W 000°11'0 0.0
2016-May-21 22:30N 53°38' W 000°11'0 0.0
2016-May-21 21:27N 53°38' W 000°11'0 0.0
2016-May-21 20:33N 53°38' W 000°11'0 0.0
2016-May-21 19:27N 53°38' W 000°11'0 0.0
2016-May-21 18:27N 53°38' W 000°11'0 0.0
2016-May-21 17:27N 53°38' W 000°11'0 0.0
2016-May-21 16:27N 53°38' W 000°11'0 0.0
2016-May-21 15:30N 53°38' W 000°11'0 0.0
2016-May-21 14:30N 53°38' W 000°11'0 0.0
2016-May-21 13:33N 53°38' W 000°11'0 0.0
2016-May-21 12:33N 53°38' W 000°11'0 0.0
2016-May-21 11:33N 53°38' W 000°11'0 0.0
2016-May-21 10:33N 53°38' W 000°11'0 0.0
2016-May-21 09:33N 53°38' W 000°11'0 0.0
2016-May-21 08:33N 53°38' W 000°11'0 0.0
2016-May-21 07:33N 53°38' W 000°11'2 2.1
2016-May-21 06:33N 53°38' W 000°08'1110.7
2016-May-21 05:33N 53°33' E 000°09'9 8.5
2016-May-21 04:32N 53°33' E 000°23'16 8.2
2016-May-21 02:33N 53°24' E 000°47'1212.0
2016-May-21 01:33N 53°18' E 001°04'1313.3
2016-May-21 00:33N 53°08' E 001°18'1313.4
2016-May-20 23:33N 52°58' E 001°33'1212.5
2016-May-20 22:33N 52°50' E 001°48'1111.1
2016-May-20 21:33N 52°44' E 002°04'1110.4
2016-May-20 20:32N 52°38' E 002°18'1010.2
2016-May-20 19:33N 52°32' E 002°32'4911.1
2016-May-20 15:06N 52°06' E 003°40'610.4
2016-May-20 14:33N 52°04' E 003°49'8 8.3
2016-May-20 13:33N 52°00' E 004°01'9 9.5
2016-May-20 12:33N 51°55' E 004°14'4 0.5
2016-May-20 04:23N 51°53' E 004°18'3 0.1
2016-May-19 04:33N 51°55' E 004°15'1010.0
2016-May-19 03:33N 51°60' E 004°01'1211.7
2016-May-19 02:33N 51°59' E 003°42'7 0.3
2016-May-17 23:18N 51°55' E 003°32'  
Track history (hours):
 
Tides and Currents Weather Stations Pressure Air Temp Water Temp Dewpoint Dewpoint Depression Visibility Wind Speed Wind Dir Waves Ship Positions

Clipper Saga

Last reported at 2016-May-27 21:32 UTC. Time now 2016-May-27 22:08 UTC.
Position N 52°05' E 002°22'.

Length 89 m; draft 5.9 m.

Type: Ship (hazmat cat C). MMSI: 246657008.

Date/timePositionNaut miles runAvg speedWind from/ knotsBaromVisibWave heightAir tempDewpointWater temp
2016-May-27 21:32N 52°05' E 002°22'3 3.2
2016-May-27 20:33N 52°09' E 002°22'3 2.5
2016-May-27 19:32N 52°11' E 002°22'3 2.0
2016-May-27 18:13N 52°14' E 002°22'13 7.0
2016-May-27 16:22N 52°27' E 002°22'37 4.1
2016-May-27 07:24N 52°03' E 003°07'6 7.2
2016-May-27 06:31N 52°03' E 003°18'1312.2
2016-May-27 05:27N 52°03' E 003°39'1010.8
2016-May-27 04:33N 52°03' E 003°55'1111.4
2016-May-27 03:33N 51°57' E 004°11'6 5.5
2016-May-27 02:33N 51°53' E 004°17'0 0.0
2016-May-27 01:21N 51°53' E 004°17'0 0.0
2016-May-27 00:18N 51°53' E 004°17'0 0.0
2016-May-26 23:03N 51°53' E 004°17'0 0.0
2016-May-26 22:12N 51°53' E 004°17'0 0.0
2016-May-26 21:24N 51°53' E 004°17'0 0.0
2016-May-26 20:22N 51°53' E 004°17'0 0.0
2016-May-26 19:30N 51°53' E 004°17'0 0.0
2016-May-26 18:12N 51°53' E 004°17'0 0.0
2016-May-26 17:33N 51°53' E 004°17'0 0.0
2016-May-26 16:33N 51°53' E 004°17'0 0.0
2016-May-26 15:25N 51°53' E 004°17'0 0.0
2016-May-26 14:27N 51°53' E 004°17'0 0.0
2016-May-26 13:21N 51°53' E 004°17'0 0.0
2016-May-26 07:33N 51°53' E 004°17'0 0.0
2016-May-26 06:25N 51°53' E 004°17'0 0.0
2016-May-25 23:33N 51°53' E 004°17'2 2.3
2016-May-25 22:33N 51°55' E 004°15'9 8.5
2016-May-25 21:33N 51°59' E 004°03'1010.1
2016-May-25 20:33N 52°01' E 003°47'75 6.2
2016-May-25 08:27N 52°43' E 002°05'1213.0
2016-May-25 07:33N 52°49' E 001°49'1212.1
2016-May-25 06:33N 52°57' E 001°34'1111.1
2016-May-25 05:33N 53°06' E 001°23'2110.5
2016-May-25 03:33N 53°24' E 001°05'14 9.9
2016-May-25 02:07N 53°36' E 000°53'25 9.4
2016-May-24 23:26N 53°58' E 000°30'910.0
2016-May-24 22:33N 54°05' E 000°22'1010.3
2016-May-24 21:33N 54°14' E 000°13'1110.8
2016-May-24 20:33N 54°23' E 000°03'1111.5
2016-May-24 19:34N 54°33' W 000°07'1211.8
2016-May-24 18:33N 54°43' W 000°19'1211.9
2016-May-24 17:33N 54°53' W 000°29'1211.9
2016-May-24 16:32N 55°03' W 000°40'1212.0
2016-May-24 15:33N 55°13' W 000°51'4511.2
2016-May-24 11:33N 55°47' W 001°43'1110.8
2016-May-24 10:33N 55°54' W 001°58'1110.8
2016-May-24 09:33N 55°59' W 002°15'1111.2
2016-May-24 08:33N 56°04' W 002°33'1110.6
2016-May-24 07:34N 56°05' W 002°52'1111.2
2016-May-24 06:33N 56°02' W 003°11'9 0.3
2016-May-23 03:11N 56°01' W 003°27'6 9.4
2016-May-23 02:33N 56°02' W 003°17'9 8.8
2016-May-23 01:33N 56°04' W 003°02'5 5.1
2016-May-23 00:33N 56°05' W 002°53'5 5.0
2016-May-22 23:33N 56°06' W 002°44'9 8.9
2016-May-22 22:33N 56°03' W 002°29'1212.4
2016-May-22 21:33N 55°58' W 002°09'10 9.8
2016-May-22 20:33N 55°52' W 001°54'5212.1
2016-May-22 16:16N 55°14' W 000°51'1011.9
2016-May-22 15:28N 55°06' W 000°42'1112.0
2016-May-22 14:33N 54°57' W 000°32'1212.2
2016-May-22 13:33N 54°47' W 000°21'1312.8
2016-May-22 12:33N 54°36' W 000°09'1313.5
2016-May-22 11:33N 54°25' E 000°03'1414.0
2016-May-22 10:33N 54°13' E 000°16'1813.6
2016-May-22 09:14N 53°55' E 000°21'913.9
2016-May-22 08:33N 53°46' E 000°22'1313.0
2016-May-22 07:34N 53°33' E 000°16'1212.2
2016-May-22 06:34N 53°36' W 000°04'5 4.4
2016-May-22 05:30N 53°38' W 000°11'0 0.0
2016-May-22 04:33N 53°38' W 000°11'0 0.0
2016-May-22 03:33N 53°38' W 000°11'0 0.0
2016-May-22 02:33N 53°38' W 000°11'0 0.0
2016-May-22 01:33N 53°38' W 000°11'0 0.0
2016-May-22 00:33N 53°38' W 000°11'0 0.0
2016-May-21 23:30N 53°38' W 000°11'0 0.0
2016-May-21 22:30N 53°38' W 000°11'0 0.0
2016-May-21 21:27N 53°38' W 000°11'0 0.0
2016-May-21 20:33N 53°38' W 000°11'0 0.0
2016-May-21 19:27N 53°38' W 000°11'0 0.0
2016-May-21 18:27N 53°38' W 000°11'0 0.0
2016-May-21 17:27N 53°38' W 000°11'0 0.0
2016-May-21 16:27N 53°38' W 000°11'0 0.0
2016-May-21 15:30N 53°38' W 000°11'0 0.0
2016-May-21 14:30N 53°38' W 000°11'0 0.0
2016-May-21 13:33N 53°38' W 000°11'0 0.0
2016-May-21 12:33N 53°38' W 000°11'0 0.0
2016-May-21 11:33N 53°38' W 000°11'0 0.0
2016-May-21 10:33N 53°38' W 000°11'0 0.0
2016-May-21 09:33N 53°38' W 000°11'0 0.0
2016-May-21 08:33N 53°38' W 000°11'0 0.0
2016-May-21 07:33N 53°38' W 000°11'2 2.1
2016-May-21 06:33N 53°38' W 000°08'1110.7
2016-May-21 05:33N 53°33' E 000°09'9 8.5
2016-May-21 04:32N 53°33' E 000°23'16 8.2
2016-May-21 02:33N 53°24' E 000°47'1212.0
2016-May-21 01:33N 53°18' E 001°04'1313.3
2016-May-21 00:33N 53°08' E 001°18'1313.4
2016-May-20 23:33N 52°58' E 001°33'1212.5
2016-May-20 22:33N 52°50' E 001°48'1111.1
2016-May-20 21:33N 52°44' E 002°04'1110.4
2016-May-20 20:32N 52°38' E 002°18'1010.2
2016-May-20 19:33N 52°32' E 002°32'4911.1
2016-May-20 15:06N 52°06' E 003°40'610.4
2016-May-20 14:33N 52°04' E 003°49'8 8.3
2016-May-20 13:33N 52°00' E 004°01'9 9.5
2016-May-20 12:33N 51°55' E 004°14'4 0.5
2016-May-20 04:23N 51°53' E 004°18'3 0.1
2016-May-19 04:33N 51°55' E 004°15'1010.0
2016-May-19 03:33N 51°60' E 004°01'1211.7
2016-May-19 02:33N 51°59' E 003°42'7 0.3
2016-May-17 23:18N 51°55' E 003°32'  

Dump ship's entire track history